Time;durP1;ratioP1;P1;durP2;ratioP2;P2;SDS_P1;SDS_P2;PMS_P1;PMS_P2;Temp;Humidity;BMP_temperature;BMP_pressure;BME280_temperature;BME280_humidity;BME280_pressure;Samples;Min_cycle;Max_cycle;Signal;HPM_P1;HPM_P2
2022/04/22 00:00:39;;;;;;;12.68;8.50;;;;;;;10.17;72.18;100188.81;5058604;28;20049;-80
2022/04/22 00:03:06;;;;;;;11.93;8.55;;;;;;;10.10;72.22;100187.03;5058977;28;20048;-79
2022/04/22 00:05:33;;;;;;;11.07;8.13;;;;;;;10.09;72.42;100180.16;5060283;28;20131;-78
2022/04/22 00:08:02;;;;;;;14.50;9.63;;;;;;;9.96;72.96;100178.84;5059301;28;20053;-79
2022/04/22 00:10:29;;;;;;;12.93;9.20;;;;;;;9.94;72.78;100172.97;5059264;28;20193;-79
2022/04/22 00:12:55;;;;;;;11.82;8.90;;;;;;;9.87;73.41;100173.81;5059944;28;20087;-79
2022/04/22 00:15:22;;;;;;;9.90;8.38;;;;;;;9.81;73.68;100161.38;5060540;28;20132;-79
2022/04/22 00:17:49;;;;;;;11.90;8.15;;;;;;;9.76;73.83;100171.50;5062320;28;20048;-79
2022/04/22 00:20:16;;;;;;;12.85;8.13;;;;;;;9.76;73.90;100166.28;5061727;28;20128;-79
2022/04/22 00:22:44;;;;;;;11.85;8.10;;;;;;;9.68;74.17;100166.25;5061829;28;20076;-80
2022/04/22 00:25:14;;;;;;;11.68;8.10;;;;;;;9.61;74.67;100173.94;5061210;28;20088;-81
2022/04/22 00:27:41;;;;;;;14.27;8.32;;;;;;;9.52;75.03;100172.28;5061346;28;20083;-79
2022/04/22 00:30:10;;;;;;;11.55;8.52;;;;;;;9.52;75.08;100173.09;5061054;28;20139;-78
2022/04/22 00:32:37;;;;;;;12.63;8.45;;;;;;;9.40;75.57;100163.94;5062051;28;20083;-79
2022/04/22 00:35:05;;;;;;;9.45;8.00;;;;;;;9.41;75.88;100155.13;5059906;28;20075;-80
2022/04/22 00:37:32;;;;;;;10.27;8.65;;;;;;;9.36;75.92;100164.41;5057905;28;20073;-80
2022/04/22 00:39:58;;;;;;;11.52;8.35;;;;;;;9.32;76.29;100167.34;5058638;28;20087;-78
2022/04/22 00:42:28;;;;;;;14.65;8.20;;;;;;;9.28;76.48;100165.22;5058323;28;20452;-79
2022/04/22 00:44:56;;;;;;;11.27;8.73;;;;;;;9.28;76.76;100162.59;5058212;28;20055;-79
2022/04/22 00:47:22;;;;;;;11.02;8.18;;;;;;;9.25;76.81;100155.91;5056369;28;20131;-79
2022/04/22 00:49:49;;;;;;;14.27;8.60;;;;;;;9.30;76.41;100158.84;5038177;28;20048;-79
2022/04/22 00:52:16;;;;;;;14.63;8.90;;;;;;;9.24;76.78;100158.66;5057340;28;20076;-80
2022/04/22 00:54:43;;;;;;;12.32;9.07;;;;;;;9.19;76.92;100155.72;5057401;28;20104;-77
2022/04/22 00:57:10;;;;;;;12.63;8.77;;;;;;;9.23;77.19;100143.97;5057108;28;20238;-79
2022/04/22 00:59:38;;;;;;;14.13;8.55;;;;;;;9.08;77.64;100142.94;5056394;28;20063;-79
2022/04/22 01:02:05;;;;;;;11.57;8.38;;;;;;;9.03;77.91;100150.44;5056440;28;20089;-80
2022/04/22 01:10:00;;;;;;;11.13;9.00;;;;;;;8.98;78.42;100146.50;5056907;28;20068;-81
2022/04/22 01:12:30;;;;;;;12.35;8.98;;;;;;;8.98;78.52;100149.09;5056602;28;20127;-80
2022/04/22 01:14:59;;;;;;;16.60;8.98;;;;;;;8.92;78.67;100144.53;5059399;28;20256;-80
2022/04/22 01:17:26;;;;;;;13.27;9.38;;;;;;;8.88;78.89;100137.19;5060280;28;20113;-81
2022/04/22 01:19:54;;;;;;;13.80;9.57;;;;;;;8.89;79.22;100144.03;5057337;28;20088;-79
2022/04/22 01:22:22;;;;;;;11.82;9.13;;;;;;;8.88;78.92;100142.41;5059261;28;20049;-81
2022/04/22 01:24:56;;;;;;;13.55;9.73;;;;;;;8.87;79.12;100140.78;5057311;28;20131;-79
2022/04/22 01:27:26;;;;;;;12.07;9.68;;;;;;;8.78;79.61;100141.69;5058304;28;20049;-79
2022/04/22 01:29:53;;;;;;;12.88;10.20;;;;;;;8.76;79.64;100134.03;5057746;28;20037;-80
2022/04/22 01:32:19;;;;;;;14.27;10.50;;;;;;;8.69;79.87;100119.97;5058796;28;20049;-79
2022/04/22 01:34:46;;;;;;;13.57;10.60;;;;;;;8.65;80.15;100135.13;5070592;22;20144;-80
2022/04/22 01:37:13;;;;;;;13.70;10.48;;;;;;;8.61;80.53;100125.16;5053892;28;20072;-81
2022/04/22 01:39:40;;;;;;;12.95;10.60;;;;;;;8.50;80.89;100122.84;5053677;28;20052;-80
2022/04/22 01:42:08;;;;;;;19.17;10.73;;;;;;;8.52;81.20;100123.47;5053594;28;20128;-80
2022/04/22 01:44:36;;;;;;;19.70;11.13;;;;;;;8.48;81.33;100125.59;5052797;28;20057;-80
2022/04/22 01:47:02;;;;;;;15.48;10.95;;;;;;;8.53;81.39;100127.72;5053360;28;20072;-80
2022/04/22 01:49:29;;;;;;;15.57;10.88;;;;;;;8.42;81.57;100115.78;5052316;28;20140;-81
2022/04/22 01:51:56;;;;;;;12.80;10.45;;;;;;;8.42;81.70;100120.16;5054161;28;20119;-81
2022/04/22 01:54:23;;;;;;;16.35;10.30;;;;;;;8.45;81.56;100112.03;5053724;28;20187;-81
2022/04/22 01:56:51;;;;;;;16.92;11.25;;;;;;;8.37;81.85;100112.81;5053171;28;20128;-81
2022/04/22 01:59:17;;;;;;;14.15;10.57;;;;;;;8.40;82.32;100128.16;5052854;28;20276;-81
2022/04/22 02:01:44;;;;;;;17.55;10.98;;;;;;;8.41;82.08;100126.34;5052516;28;20140;-81
2022/04/22 02:04:10;;;;;;;16.58;11.23;;;;;;;8.35;82.45;100124.38;5057347;28;20036;-79
2022/04/22 02:06:37;;;;;;;17.65;11.70;;;;;;;8.35;82.27;100122.56;5070876;28;20056;-80
2022/04/22 02:09:04;;;;;;;15.50;11.27;;;;;;;8.30;82.47;100119.56;5071625;28;20032;-79
2022/04/22 02:11:30;;;;;;;17.95;11.70;;;;;;;8.29;82.43;100120.53;5059407;28;20049;-80
2022/04/22 02:13:58;;;;;;;14.98;11.48;;;;;;;8.18;83.21;100121.63;5058484;28;20056;-79
2022/04/22 02:16:25;;;;;;;18.88;12.38;;;;;;;8.18;83.39;100110.38;5058905;28;20088;-79
2022/04/22 02:18:52;;;;;;;16.63;11.75;;;;;;;8.21;83.34;100118.69;5058547;28;20049;-79
2022/04/22 02:21:18;;;;;;;14.93;12.00;;;;;;;8.13;83.64;100115.22;5058927;28;20053;-79
2022/04/22 02:23:45;;;;;;;13.50;11.55;;;;;;;8.05;83.97;100108.16;5059819;28;20048;-79
2022/04/22 02:26:11;;;;;;;13.98;11.73;;;;;;;7.99;84.59;100114.81;5062379;28;20413;-80
2022/04/22 02:28:38;;;;;;;15.20;12.77;;;;;;;7.95;84.60;100115.28;5063077;28;20053;-80
2022/04/22 02:31:07;;;;;;;15.23;12.20;;;;;;;7.90;84.70;100110.53;5071914;28;20045;-79
2022/04/22 02:33:35;;;;;;;18.60;12.48;;;;;;;7.88;85.27;100111.63;5072098;28;20080;-79
2022/04/22 02:36:02;;;;;;;17.15;12.73;;;;;;;7.80;85.52;100108.97;5059780;28;20091;-79
2022/04/22 02:38:30;;;;;;;15.77;12.75;;;;;;;7.81;85.82;100110.59;5057553;28;20064;-81
2022/04/22 02:46:27;;;;;;;16.50;12.27;;;;;;;7.66;86.42;100113.72;5059273;28;20156;-80
2022/04/22 02:48:56;;;;;;;15.10;12.98;;;;;;;7.65;86.58;100116.47;5059486;28;20071;-81
2022/04/22 02:51:23;;;;;;;18.80;14.30;;;;;;;7.64;86.94;100109.63;5060850;28;20079;-80
2022/04/22 02:53:50;;;;;;;19.52;13.32;;;;;;;7.55;87.10;100110.56;5064151;28;20076;-79
2022/04/22 02:56:18;;;;;;;17.45;12.82;;;;;;;7.49;87.78;100104.16;5065433;28;20049;-80
2022/04/22 02:58:45;;;;;;;16.77;14.10;;;;;;;7.49;87.87;100104.16;5060165;28;20533;-80
2022/04/22 03:01:11;;;;;;;18.58;14.27;;;;;;;7.44;87.72;100097.75;5060334;28;20128;-79
2022/04/22 03:03:39;;;;;;;18.35;13.75;;;;;;;7.47;87.93;100100.88;5058863;28;20071;-80
2022/04/22 03:06:06;;;;;;;20.58;15.20;;;;;;;7.43;87.88;100101.31;5058653;28;20131;-80
2022/04/22 03:08:34;;;;;;;21.58;13.48;;;;;;;7.47;87.84;100100.88;5058560;28;20088;-80
2022/04/22 03:11:00;;;;;;;17.02;13.52;;;;;;;7.41;88.19;100104.09;5059409;28;20041;-79
2022/04/22 03:13:27;;;;;;;18.67;14.20;;;;;;;7.36;88.56;100100.28;5059296;28;20127;-80
2022/04/22 03:15:54;;;;;;;20.48;14.80;;;;;;;7.39;88.72;100098.19;5058746;28;20124;-79
2022/04/22 03:18:21;;;;;;;20.60;14.45;;;;;;;7.35;88.96;100099.47;5057978;28;20060;-81
2022/04/22 03:20:49;;;;;;;20.52;15.63;;;;;;;7.31;89.30;100090.31;5059281;28;20447;-81
2022/04/22 03:23:21;;;;;;;17.65;14.38;;;;;;;7.27;89.11;100086.38;5062014;28;20515;-81
2022/04/22 03:25:50;;;;;;;23.52;15.68;;;;;;;7.24;89.35;100086.66;5059031;28;20095;-81
2022/04/22 03:28:21;;;;;;;24.20;15.55;;;;;;;7.19;89.77;100084.50;5059523;28;20079;-81
2022/04/22 03:30:48;;;;;;;18.17;15.02;;;;;;;7.20;89.99;100085.31;5059307;28;20049;-80
2022/04/22 03:33:16;;;;;;;18.85;15.43;;;;;;;7.21;90.28;100094.75;5059200;28;20527;-81
2022/04/22 03:35:43;;;;;;;20.50;15.80;;;;;;;7.18;90.18;100074.25;5058710;28;20475;-80
2022/04/22 03:38:12;;;;;;;19.73;15.13;;;;;;;7.11;90.46;100086.19;5059424;28;20250;-82
2022/04/22 03:40:39;;;;;;;21.98;16.10;;;;;;;7.11;90.35;100087.00;5060028;28;20055;-82
2022/04/22 03:43:07;;;;;;;23.25;15.90;;;;;;;7.13;90.03;100081.66;5063177;28;20049;-81
2022/04/22 03:45:33;;;;;;;18.58;14.93;;;;;;;7.07;90.71;100080.50;5062210;28;20052;-80
2022/04/22 03:48:01;;;;;;;24.30;15.73;;;;;;;7.07;90.08;100087.47;5061838;28;20139;-81
2022/04/22 03:50:34;;;;;;;20.23;14.98;;;;;;;7.01;90.19;100078.47;5059340;28;20132;-79
2022/04/22 03:53:01;;;;;;;;;;;;;;;7.07;90.73;100083.09;5059036;28;20045;-80
2022/04/22 03:55:29;;;;;;;20.60;15.57;;;;;;;6.94;91.07;100080.84;5058641;28;20003;-79
2022/04/22 03:58:12;;;;;;;21.05;15.95;;;;;;;6.94;90.79;100082.63;5056771;28;20049;-78
2022/04/22 04:00:41;;;;;;;19.95;16.10;;;;;;;6.94;91.02;100075.63;5057285;28;20519;-80
2022/04/22 04:03:09;;;;;;;17.83;14.90;;;;;;;6.89;90.90;100077.03;5057979;28;20061;-81
2022/04/22 04:05:36;;;;;;;22.80;16.35;;;;;;;6.85;91.42;100071.31;5060245;28;20056;-79
2022/04/22 04:08:02;;;;;;;18.77;14.88;;;;;;;6.78;91.40;100070.25;5058850;28;20566;-79
2022/04/22 04:15:58;;;;;;;23.40;17.15;;;;;;;6.78;92.72;100070.25;5063009;28;20056;-79
2022/04/22 04:18:25;;;;;;;22.05;16.55;;;;;;;6.80;92.67;100060.50;5063059;28;20079;-79
2022/04/22 04:23:36;;;;;;;22.50;16.08;;;;;;;6.83;91.82;100057.63;5058685;28;20059;-79
2022/04/22 04:26:04;;;;;;;20.83;17.30;;;;;;;6.77;92.54;100063.41;5055812;28;20112;-79
2022/04/22 04:28:33;;;;;;;22.00;16.15;;;;;;;6.75;92.61;100070.53;5058228;28;20071;-78
2022/04/22 04:31:00;;;;;;;22.55;16.77;;;;;;;6.74;92.65;100061.09;5060040;28;20089;-79
2022/04/22 04:33:27;;;;;;;22.33;16.88;;;;;;;6.75;92.31;100057.53;5062476;28;20135;-80
2022/04/22 04:35:53;;;;;;;21.58;16.48;;;;;;;6.73;92.28;100062.06;5066960;28;20080;-80
2022/04/22 04:38:20;;;;;;;25.05;17.42;;;;;;;6.72;92.37;100062.19;5064523;28;20426;-80
2022/04/22 04:40:48;;;;;;;28.05;17.73;;;;;;;6.77;92.14;100058.22;5059383;28;20064;-80
2022/04/22 04:43:17;;;;;;;21.27;17.30;;;;;;;6.80;92.26;100052.72;5057869;28;20482;-79
2022/04/22 04:45:45;;;;;;;25.63;17.48;;;;;;;6.83;92.14;100057.63;5058711;28;20045;-79
2022/04/22 04:48:12;;;;;;;21.70;16.90;;;;;;;6.87;91.96;100071.97;5061383;28;20049;-80
2022/04/22 04:50:40;;;;;;;21.77;16.80;;;;;;;6.94;91.76;100067.00;5068416;28;20232;-80
2022/04/22 04:53:06;;;;;;;22.27;16.60;;;;;;;6.98;92.00;100071.78;5068535;28;20519;-80
2022/04/22 04:55:34;;;;;;;24.70;16.88;;;;;;;7.02;91.80;100071.50;5069215;28;20049;-81
2022/04/22 04:58:00;;;;;;;26.90;17.10;;;;;;;7.09;91.42;100067.34;5067716;28;20481;-80
2022/04/22 05:00:28;;;;;;;22.00;16.38;;;;;;;7.13;91.38;100063.44;5058517;28;20624;-81
2022/04/22 05:02:56;;;;;;;23.73;16.33;;;;;;;7.26;91.07;100069.13;5059506;28;20056;-80
2022/04/22 05:05:23;;;;;;;23.55;17.25;;;;;;;7.36;90.80;100071.66;5061515;28;20117;-80
2022/04/22 05:07:53;;;;;;;20.38;16.77;;;;;;;7.38;90.77;100069.72;5057556;28;20515;-79
2022/04/22 05:10:20;;;;;;;25.05;17.73;;;;;;;7.46;91.17;100075.00;5056611;28;20045;-80
2022/04/22 05:12:47;;;;;;;23.98;17.52;;;;;;;7.53;90.25;100069.06;5057296;28;20106;-81
2022/04/22 05:15:17;;;;;;;24.75;18.23;;;;;;;7.58;89.85;100074.59;5058922;28;20079;-80
2022/04/22 05:17:56;;;;;;;23.55;17.98;;;;;;;7.70;89.63;100069.16;5058134;28;20065;-80
2022/04/22 05:20:25;;;;;;;24.98;17.90;;;;;;;7.77;89.37;100070.19;5058482;28;20057;-81
2022/04/22 05:22:52;;;;;;;27.65;17.80;;;;;;;7.86;89.17;100064.09;5059386;28;20057;-80
2022/04/22 05:25:23;;;;;;;23.42;18.13;;;;;;;7.84;88.78;100037.38;5089065;22;20048;-80
2022/04/22 05:27:54;;;;;;;29.17;18.08;;;;;;;8.06;88.19;100056.88;5096893;28;20040;-79
2022/04/22 05:33:07;;;;;;;25.02;18.20;;;;;;;8.30;87.36;100052.63;5097683;28;20109;-82
2022/04/22 05:35:34;;;;;;;28.67;18.00;;;;;;;8.61;86.13;100052.94;5082533;28;20079;-80
2022/04/22 05:38:03;;;;;;;26.80;18.35;;;;;;;9.33;82.83;100058.50;5076613;28;20080;-80
2022/04/22 05:40:32;;;;;;;22.58;16.45;;;;;;;10.35;78.76;100050.09;5077833;28;20491;-81
2022/04/22 05:42:59;;;;;;;23.33;15.80;;;;;;;10.74;75.60;100050.09;5078406;28;20098;-81
2022/04/22 05:45:27;;;;;;;22.85;15.85;;;;;;;11.11;74.41;100044.13;5076738;28;20091;-81
2022/04/22 05:47:56;;;;;;;22.33;15.10;;;;;;;11.85;71.38;100054.88;5077326;28;20075;-82
2022/04/22 05:50:25;;;;;;;20.35;14.48;;;;;;;11.97;69.93;100048.19;5077312;28;20070;-81
2022/04/22 05:52:52;;;;;;;18.95;14.52;;;;;;;12.46;68.14;100045.03;5077588;28;20148;-81
2022/04/22 05:55:21;;;;;;;21.85;15.20;;;;;;;12.47;68.29;100051.94;5077270;28;20049;-80
2022/04/22 05:57:49;;;;;;;22.05;16.08;;;;;;;12.04;68.57;100048.31;5076556;28;20131;-79
2022/04/22 06:00:18;;;;;;;21.77;15.38;;;;;;;12.19;68.57;100044.72;5076356;28;20140;-79
2022/04/22 06:02:46;;;;;;;20.80;14.35;;;;;;;13.01;66.30;100047.13;5076501;28;20052;-80
2022/04/22 06:05:14;;;;;;;21.67;15.55;;;;;;;12.02;68.38;100045.88;5077207;28;20473;-80
2022/04/22 06:07:43;;;;;;;20.10;15.50;;;;;;;12.60;67.17;100044.22;5079511;28;20570;-80
2022/04/22 06:12:56;;;;;;;19.27;14.45;;;;;;;13.01;65.31;100051.56;5080881;28;20083;-80
2022/04/22 06:15:23;;;;;;;19.17;14.90;;;;;;;12.56;66.92;100041.16;5079963;28;20132;-79
2022/04/22 06:17:49;;;;;;;18.90;14.45;;;;;;;12.94;64.71;100040.97;5079818;28;20128;-79
2022/04/22 06:20:16;;;;;;;19.73;14.63;;;;;;;13.10;64.30;100046.00;5080805;28;20082;-79
2022/04/22 06:22:44;;;;;;;21.08;15.70;;;;;;;13.76;60.90;100048.44;5079836;28;20049;-79
2022/04/22 06:25:11;;;;;;;17.17;12.80;;;;;;;13.36;61.67;100049.91;5075897;28;20075;-79
2022/04/22 06:27:39;;;;;;;20.70;14.65;;;;;;;12.89;62.84;100033.66;5086033;28;20075;-78
2022/04/22 06:30:08;;;;;;;17.13;13.23;;;;;;;14.04;58.89;100033.47;5095182;28;20051;-78
2022/04/22 06:32:36;;;;;;;17.55;13.40;;;;;;;14.48;57.95;100024.41;5094512;28;20133;-77
2022/04/22 06:35:03;;;;;;;16.50;13.10;;;;;;;14.57;57.62;100017.97;5094641;28;20411;-78
2022/04/22 06:37:34;;;;;;;22.42;14.90;;;;;;;13.53;59.49;100030.25;5095917;28;20359;-78
2022/04/22 06:45:48;;;;;;;21.02;14.30;;;;;;;13.82;60.85;100021.38;5075482;28;20133;-78
2022/04/22 06:48:17;;;;;;;18.33;14.07;;;;;;;14.67;57.99;100014.94;5074851;28;20425;-78
2022/04/22 06:50:46;;;;;;;18.17;14.15;;;;;;;14.66;57.10;100022.03;5075946;28;20128;-77
2022/04/22 06:53:14;;;;;;;16.80;13.52;;;;;;;15.53;54.79;100013.28;5073094;28;20064;-78
2022/04/22 06:55:42;;;;;;;18.60;13.88;;;;;;;16.36;52.86;100018.84;5076898;28;20139;-78
2022/04/22 06:58:11;;;;;;;19.25;14.43;;;;;;;15.82;53.82;100012.88;5071452;28;20052;-77
2022/04/22 07:00:39;;;;;;;22.17;15.52;;;;;;;14.65;57.86;100015.16;5074477;28;20128;-78
2022/04/22 07:03:06;;;;;;;17.23;13.52;;;;;;;15.01;56.34;100019.31;5073117;28;20426;-78
2022/04/22 07:05:35;;;;;;;19.27;14.60;;;;;;;13.95;60.27;100010.94;5072815;28;20131;-78
2022/04/22 07:08:13;;;;;;;21.98;15.93;;;;;;;14.17;59.67;100012.50;5072068;28;20622;-78
2022/04/22 07:11:25;;;;;;;18.52;15.00;;;;;;;14.15;60.36;100014.53;5072225;28;20048;-79
2022/04/22 07:20:09;;;;;;;22.73;15.80;;;;;;;12.68;65.28;100007.38;5071509;28;20364;-80
2022/04/22 07:22:36;;;;;;;28.25;16.77;;;;;;;12.32;66.69;100014.38;5076464;28;20045;-78
2022/04/22 07:25:04;;;;;;;19.40;15.18;;;;;;;12.30;67.64;100019.81;5084076;28;20097;-78
2022/04/22 07:27:34;;;;;;;21.05;15.23;;;;;;;12.08;68.00;100003.19;5088161;28;20098;-79
2022/04/22 07:30:01;;;;;;;20.02;14.98;;;;;;;12.27;68.38;100000.03;5086988;28;20119;-79
2022/04/22 07:32:28;;;;;;;24.95;16.10;;;;;;;12.10;68.78;100001.19;5082098;28;20044;-81
2022/04/22 07:35:19;;;;;;;24.58;16.17;;;;;;;11.78;69.87;99981.41;5119183;22;20108;-82
2022/04/22 07:40:52;;;;;;;22.95;16.90;;;;;;;11.59;71.20;99981.88;5068566;28;20064;-81
2022/04/22 07:50:28;;;;;;;24.27;16.85;;;;;;;11.69;70.66;100003.41;5058658;28;20049;-81
2022/04/22 08:34:07;;;;;;;17.58;13.50;;;;;;;14.78;56.97;99975.69;4935131;28;20058;-82
2022/04/22 10:55:03;;;;;;;12.05;9.52;;;;;;;16.36;44.16;99855.16;4985407;22;20064;-80
2022/04/22 11:04:01;;;;;;;11.35;10.15;;;;;;;16.20;45.14;99861.75;4997833;28;20069;-82
2022/04/22 11:07:25;;;;;;;11.75;10.30;;;;;;;16.22;44.81;99863.16;5035421;28;20140;-82
2022/04/22 11:17:26;;;;;;;;;;;;;;;;;;;;;
2022/04/22 11:20:14;;;;;;;11.20;9.93;;;;;;;17.47;41.04;99820.91;5010425;28;20065;-81
2022/04/22 11:26:04;;;;;;;12.57;10.00;;;;;;;17.98;41.11;99822.34;5000323;28;20057;-81
2022/04/22 11:29:09;;;;;;;12.23;10.55;;;;;;;17.10;42.67;99812.94;5015420;28;20049;-81
2022/04/22 13:37:11;;;;;;;10.73;8.80;;;;;;;17.74;42.90;99720.88;5124890;22;20067;-79
2022/04/22 13:39:38;;;;;;;11.75;9.50;;;;;;;17.69;43.16;99720.75;5095840;28;20051;-80
2022/04/22 13:42:05;;;;;;;12.27;9.40;;;;;;;17.92;42.92;99712.09;5096502;28;20052;-79
2022/04/22 13:52:48;;;;;;;11.98;10.77;;;;;;;17.55;46.94;99712.94;5076318;28;20087;-79
2022/04/22 13:55:14;;;;;;;15.85;10.20;;;;;;;17.15;47.90;99712.63;5076079;28;20052;-79
2022/04/22 13:57:41;;;;;;;10.88;9.65;;;;;;;16.83;48.88;99698.78;5075812;28;20048;-80
2022/04/22 14:00:10;;;;;;;14.57;10.15;;;;;;;17.45;47.65;99709.25;5075780;28;20136;-79
2022/04/22 14:02:37;;;;;;;14.57;10.15;;;;;;;17.65;47.41;99707.16;5075480;28;20052;-80
2022/04/22 14:05:04;;;;;;;14.88;10.35;;;;;;;17.40;47.86;99709.09;5075070;28;20320;-80
2022/04/22 14:07:31;;;;;;;11.48;9.38;;;;;;;17.74;47.21;99705.00;5076184;28;20083;-80
2022/04/22 14:09:59;;;;;;;10.35;9.32;;;;;;;17.54;47.09;99706.03;5076337;28;20056;-79
2022/04/22 14:12:26;;;;;;;11.05;9.73;;;;;;;17.31;48.03;99710.44;5076042;28;20127;-79
2022/04/22 14:14:53;;;;;;;13.70;9.85;;;;;;;17.08;49.29;99711.09;5075243;28;20392;-77
2022/04/22 14:17:20;;;;;;;12.77;9.98;;;;;;;17.36;48.94;99702.66;5075681;28;20092;-80
2022/04/22 14:19:47;;;;;;;14.10;9.43;;;;;;;17.59;47.33;99697.44;5075843;28;20047;-79
2022/04/22 14:22:14;;;;;;;13.07;9.90;;;;;;;17.35;47.59;99701.84;5076267;28;20470;-78
2022/04/22 14:24:40;;;;;;;12.73;9.70;;;;;;;17.54;47.88;99711.34;5076199;28;20486;-80
2022/04/22 14:27:11;;;;;;;10.60;9.27;;;;;;;17.66;47.26;99707.97;5075098;28;20681;-80
2022/04/22 14:29:39;;;;;;;14.60;9.48;;;;;;;17.71;47.50;99702.81;5078616;28;20700;-79
2022/04/22 14:32:07;;;;;;;13.00;9.65;;;;;;;17.41;48.28;99706.25;5079366;28;20103;-79
2022/04/22 14:34:34;;;;;;;12.55;9.57;;;;;;;17.47;48.23;99702.69;5079561;28;20056;-78
2022/04/22 14:37:01;;;;;;;11.48;9.13;;;;;;;17.23;48.50;99703.59;5079500;28;20056;-81
2022/04/22 14:39:30;;;;;;;10.45;8.98;;;;;;;17.08;48.83;99689.94;5079632;28;20160;-78
2022/04/22 14:41:56;;;;;;;11.00;9.52;;;;;;;17.13;49.03;99695.38;5083245;28;20053;-79
2022/04/22 14:44:24;;;;;;;10.85;8.93;;;;;;;17.58;48.68;99690.53;5085744;28;20041;-78
2022/04/22 14:46:51;;;;;;;14.02;10.35;;;;;;;16.97;50.06;99702.09;5083174;28;20131;-79
2022/04/22 14:49:19;;;;;;;15.35;9.35;;;;;;;16.85;51.20;99691.44;5082889;28;20128;-78
2022/04/22 14:51:47;;;;;;;13.55;9.93;;;;;;;16.83;51.20;99709.34;5085244;28;20108;-77
2022/04/22 14:54:15;;;;;;;11.88;10.13;;;;;;;16.68;51.23;99700.94;5082054;28;20144;-79
2022/04/22 14:56:42;;;;;;;11.75;9.35;;;;;;;16.67;51.63;99707.25;5077746;28;20429;-78
2022/04/22 14:59:10;;;;;;;12.57;9.75;;;;;;;16.69;51.44;99707.84;5077294;28;20053;-79
2022/04/22 15:01:39;;;;;;;14.77;8.77;;;;;;;16.63;51.03;99713.97;5078486;28;20044;-78
2022/04/22 15:04:06;;;;;;;12.93;9.73;;;;;;;16.87;50.59;99702.59;5078829;28;20131;-80
2022/04/22 15:06:37;;;;;;;13.95;9.70;;;;;;;16.75;51.00;99706.16;5078052;28;20153;-80
2022/04/22 15:09:05;;;;;;;10.35;8.35;;;;;;;16.84;50.32;99700.38;5077776;28;20135;-78
2022/04/22 15:11:32;;;;;;;12.48;8.23;;;;;;;17.11;48.91;99689.50;5077737;28;20653;-79
2022/04/22 15:14:02;;;;;;;9.55;8.55;;;;;;;17.17;48.50;99688.63;5078249;28;20083;-81
2022/04/22 15:16:30;;;;;;;11.57;8.90;;;;;;;17.32;48.19;99690.91;5078546;28;20112;-79
2022/04/22 15:24:26;;;;;;;9.75;8.40;;;;;;;17.38;48.08;99696.09;5077857;28;20140;-79
2022/04/22 15:26:54;;;;;;;10.90;9.10;;;;;;;17.65;47.75;99695.75;5078703;28;20098;-78
2022/04/22 15:29:21;;;;;;;13.43;8.73;;;;;;;17.33;48.21;99697.78;5077437;28;20052;-79
2022/04/22 15:31:47;;;;;;;9.63;8.63;;;;;;;17.20;48.47;99693.47;5078360;28;20538;-78
2022/04/22 15:34:16;;;;;;;9.90;8.57;;;;;;;17.09;48.55;99691.56;5077815;28;20080;-78
2022/04/22 15:36:46;;;;;;;12.45;9.25;;;;;;;17.16;48.73;99698.38;5077784;28;20467;-79
2022/04/22 15:39:13;;;;;;;10.02;8.88;;;;;;;17.19;48.42;99694.50;5076762;28;20131;-79
2022/04/22 15:41:40;;;;;;;10.95;9.52;;;;;;;16.95;49.44;99700.69;5077930;28;20084;-79
2022/04/22 15:44:06;;;;;;;10.48;9.38;;;;;;;17.05;49.38;99695.66;5077977;28;20123;-80
2022/04/22 15:46:33;;;;;;;11.85;9.20;;;;;;;16.86;49.45;99694.88;5077644;28;20139;-79
2022/04/22 15:49:00;;;;;;;11.55;9.10;;;;;;;16.75;49.80;99695.59;5077389;28;20044;-80
2022/04/22 15:51:28;;;;;;;13.43;10.18;;;;;;;16.59;50.02;99692.47;5077678;28;20048;-79
2022/04/22 15:53:56;;;;;;;11.48;9.68;;;;;;;16.81;50.32;99694.72;5078035;28;20586;-79
2022/04/22 15:56:25;;;;;;;11.82;10.15;;;;;;;17.05;50.01;99696.47;5078037;28;20049;-79
2022/04/22 15:58:53;;;;;;;14.85;11.27;;;;;;;16.88;50.92;99696.28;5076639;28;20108;-78
2022/04/22 16:01:20;;;;;;;15.20;10.65;;;;;;;17.04;51.16;99683.47;5077520;28;20259;-79
2022/04/22 16:03:50;;;;;;;14.73;11.25;;;;;;;17.06;50.76;99687.53;5077246;28;20044;-79
2022/04/22 16:06:17;;;;;;;14.85;11.05;;;;;;;17.41;47.49;99685.09;5078850;28;20403;-79
2022/04/22 16:08:45;;;;;;;12.30;11.00;;;;;;;17.27;49.30;99694.19;5077956;28;20060;-79
2022/04/22 16:16:40;;;;;;;18.63;12.05;;;;;;;17.07;47.82;99696.25;5077585;28;20183;-79
2022/04/22 16:19:08;;;;;;;15.23;11.02;;;;;;;17.34;48.09;99694.94;5078111;28;20507;-79
2022/04/22 16:21:34;;;;;;;12.90;11.50;;;;;;;17.14;47.62;99712.84;5080417;28;20052;-78
2022/04/22 16:24:03;;;;;;;15.82;11.35;;;;;;;17.20;48.72;99685.53;5078433;28;20127;-81
2022/04/22 16:26:30;;;;;;;13.70;10.80;;;;;;;17.33;47.94;99706.53;5077383;28;20052;-79
2022/04/22 16:28:57;;;;;;;13.65;11.23;;;;;;;17.06;48.16;99702.56;5076362;28;20530;-79
2022/04/22 16:31:23;;;;;;;13.32;11.52;;;;;;;16.98;47.49;99700.25;5077761;28;20056;-81
2022/04/22 16:33:50;;;;;;;14.15;11.50;;;;;;;16.75;47.92;99698.25;5076590;28;20124;-79
2022/04/22 16:36:17;;;;;;;15.20;11.73;;;;;;;16.82;48.63;99701.63;5077516;28;20076;-80
2022/04/22 16:38:45;;;;;;;16.48;12.30;;;;;;;16.60;49.09;99702.00;5077988;28;20079;-79
2022/04/22 16:41:13;;;;;;;13.60;12.05;;;;;;;16.65;49.40;99698.75;5081901;28;20080;-80
2022/04/22 16:43:40;;;;;;;15.32;12.50;;;;;;;16.47;50.18;99698.69;5083263;28;20044;-79
2022/04/22 16:46:08;;;;;;;16.10;12.73;;;;;;;16.60;50.04;99696.72;5080228;28;20084;-80
2022/04/22 16:48:36;;;;;;;18.23;13.55;;;;;;;16.44;50.54;99707.03;5075438;28;20057;-79
2022/04/22 16:51:02;;;;;;;14.63;12.35;;;;;;;16.45;50.50;99700.75;5077375;28;20055;-79
2022/04/22 16:53:32;;;;;;;14.70;12.45;;;;;;;16.40;50.30;99714.59;5076899;28;20483;-80
2022/04/22 16:55:59;;;;;;;16.23;13.63;;;;;;;16.42;50.37;99712.53;5076729;28;20519;-80
2022/04/22 16:58:27;;;;;;;14.63;13.13;;;;;;;16.39;49.36;99725.38;5077174;28;20108;-81
2022/04/22 17:00:53;;;;;;;14.48;12.63;;;;;;;16.58;48.74;99711.97;5076859;28;20116;-79
2022/04/22 17:03:20;;;;;;;15.23;12.65;;;;;;;16.56;47.99;99713.22;5084482;28;20098;-78
2022/04/22 17:05:48;;;;;;;13.25;11.63;;;;;;;16.62;47.82;99720.28;5092934;28;20083;-78
2022/04/22 17:08:15;;;;;;;14.32;12.90;;;;;;;16.68;47.81;99708.06;5094457;28;20028;-78
2022/04/22 17:10:42;;;;;;;16.30;11.73;;;;;;;16.70;48.66;99717.38;5088969;28;20072;-79
2022/04/22 17:13:08;;;;;;;14.10;12.70;;;;;;;16.46;48.45;99718.19;5076868;28;20040;-79
2022/04/22 17:23:48;;;;;;;18.27;12.82;;;;;;;16.27;48.85;99719.97;5076023;28;20183;-80
2022/04/22 17:26:15;;;;;;;14.75;12.60;;;;;;;16.32;48.69;99720.13;5075931;28;20131;-79
2022/04/22 17:28:43;;;;;;;14.25;12.52;;;;;;;16.38;48.63;99726.38;5076264;28;20055;-78
2022/04/22 17:31:11;;;;;;;20.00;11.95;;;;;;;16.24;48.41;99726.47;5076462;28;20052;-79
2022/04/22 17:33:38;;;;;;;13.82;12.30;;;;;;;16.21;48.49;99726.91;5076747;28;20045;-79
2022/04/22 17:36:05;;;;;;;14.48;12.93;;;;;;;16.16;48.69;99718.00;5076115;28;20692;-80
2022/04/22 17:38:36;;;;;;;16.52;12.55;;;;;;;16.22;48.67;99733.00;5076244;28;20422;-80
2022/04/22 17:41:04;;;;;;;17.20;13.75;;;;;;;16.10;48.73;99724.94;5076906;28;20185;-80
2022/04/22 17:43:31;;;;;;;15.73;13.50;;;;;;;15.97;49.08;99730.34;5076962;28;20049;-79
2022/04/22 17:45:57;;;;;;;15.25;13.65;;;;;;;15.95;49.44;99726.28;5075823;28;20064;-80
2022/04/22 17:48:25;;;;;;;15.23;13.02;;;;;;;15.84;49.72;99725.13;5075501;28;20057;-79
2022/04/22 17:50:52;;;;;;;15.23;13.48;;;;;;;15.82;50.11;99725.34;5076778;28;20430;-79
2022/04/22 17:53:20;;;;;;;16.88;13.73;;;;;;;15.80;50.18;99723.94;5076233;28;20072;-79
2022/04/22 17:55:47;;;;;;;16.30;13.77;;;;;;;15.70;50.40;99726.22;5079369;28;20044;-78
2022/04/22 17:58:14;;;;;;;17.35;13.98;;;;;;;15.64;50.50;99735.78;5082476;28;20156;-79
2022/04/22 18:00:41;;;;;;;18.17;13.60;;;;;;;15.61;50.92;99736.19;5077908;28;20059;-78